sensor_id;sensor_type;location;lat;lon;timestamp;pressure;altitude;pressure_sealevel;temperature;humidity
65010;BME280;51556;50.002;22.014;2022-07-06T00:00:44;98998.91;;;18.63;77.14
65010;BME280;51556;50.002;22.014;2022-07-06T00:03:10;99023.71;;;18.65;76.89
65010;BME280;51556;50.002;22.014;2022-07-06T00:05:36;99055.63;;;18.71;76.66
65010;BME280;51556;50.002;22.014;2022-07-06T00:08:01;99076.54;;;18.77;76.61
65010;BME280;51556;50.002;22.014;2022-07-06T00:10:27;99074.10;;;18.75;76.49
65010;BME280;51556;50.002;22.014;2022-07-06T00:12:52;99042.14;;;18.76;76.23
65010;BME280;51556;50.002;22.014;2022-07-06T00:15:18;99037.79;;;18.77;76.49
65010;BME280;51556;50.002;22.014;2022-07-06T00:17:43;99016.77;;;18.77;76.55
65010;BME280;51556;50.002;22.014;2022-07-06T00:20:09;98993.30;;;18.76;76.38
65010;BME280;51556;50.002;22.014;2022-07-06T00:22:35;98977.54;;;18.77;76.33
65010;BME280;51556;50.002;22.014;2022-07-06T00:25:00;98974.34;;;18.77;76.25
65010;BME280;51556;50.002;22.014;2022-07-06T00:27:26;98982.35;;;18.80;76.15
65010;BME280;51556;50.002;22.014;2022-07-06T00:29:51;98999.44;;;18.83;76.06
65010;BME280;51556;50.002;22.014;2022-07-06T00:32:17;99001.57;;;18.86;76.07
65010;BME280;51556;50.002;22.014;2022-07-06T00:34:43;98984.83;;;18.88;75.86
65010;BME280;51556;50.002;22.014;2022-07-06T00:37:08;98954.95;;;18.89;75.82
65010;BME280;51556;50.002;22.014;2022-07-06T00:39:34;98936.48;;;18.86;76.15
65010;BME280;51556;50.002;22.014;2022-07-06T00:42:00;98933.77;;;18.78;75.97
65010;BME280;51556;50.002;22.014;2022-07-06T00:44:26;98949.85;;;18.75;76.06
65010;BME280;51556;50.002;22.014;2022-07-06T00:46:51;98963.09;;;18.74;76.07
65010;BME280;51556;50.002;22.014;2022-07-06T00:49:17;98975.30;;;18.73;76.27
65010;BME280;51556;50.002;22.014;2022-07-06T00:52:02;98977.46;;;18.69;76.13
65010;BME280;51556;50.002;22.014;2022-07-06T00:54:30;98970.45;;;18.68;76.36
65010;BME280;51556;50.002;22.014;2022-07-06T00:56:56;98954.85;;;18.72;76.21
65010;BME280;51556;50.002;22.014;2022-07-06T00:59:23;98943.39;;;18.76;76.15
65010;BME280;51556;50.002;22.014;2022-07-06T01:01:50;98941.14;;;18.77;76.14
65010;BME280;51556;50.002;22.014;2022-07-06T01:04:16;98946.11;;;18.78;76.21
65010;BME280;51556;50.002;22.014;2022-07-06T01:06:41;98950.02;;;18.78;76.08
65010;BME280;51556;50.002;22.014;2022-07-06T01:09:08;98943.42;;;18.78;76.12
65010;BME280;51556;50.002;22.014;2022-07-06T01:11:33;98947.41;;;18.77;75.98
65010;BME280;51556;50.002;22.014;2022-07-06T01:14:00;98948.36;;;18.70;75.88
65010;BME280;51556;50.002;22.014;2022-07-06T01:16:26;98953.04;;;18.66;75.93
65010;BME280;51556;50.002;22.014;2022-07-06T01:18:52;98953.90;;;18.64;75.93
65010;BME280;51556;50.002;22.014;2022-07-06T01:21:17;98929.55;;;18.57;76.01
65010;BME280;51556;50.002;22.014;2022-07-06T01:23:45;98907.78;;;18.52;76.25
65010;BME280;51556;50.002;22.014;2022-07-06T01:26:13;98915.11;;;18.50;76.63
65010;BME280;51556;50.002;22.014;2022-07-06T01:28:39;98927.60;;;18.47;76.64
65010;BME280;51556;50.002;22.014;2022-07-06T01:31:04;98921.08;;;18.40;76.58
65010;BME280;51556;50.002;22.014;2022-07-06T01:33:31;98919.25;;;18.38;76.71
65010;BME280;51556;50.002;22.014;2022-07-06T01:35:57;98915.43;;;18.39;76.78
65010;BME280;51556;50.002;22.014;2022-07-06T01:38:22;98913.98;;;18.40;76.87
65010;BME280;51556;50.002;22.014;2022-07-06T01:40:48;98913.63;;;18.39;76.78
65010;BME280;51556;50.002;22.014;2022-07-06T01:43:13;98911.66;;;18.40;76.89
65010;BME280;51556;50.002;22.014;2022-07-06T01:45:39;98906.76;;;18.41;76.88
65010;BME280;51556;50.002;22.014;2022-07-06T01:48:08;98905.55;;;18.43;76.89
65010;BME280;51556;50.002;22.014;2022-07-06T01:50:33;98900.87;;;18.44;76.87
65010;BME280;51556;50.002;22.014;2022-07-06T01:53:00;98904.16;;;18.43;76.79
65010;BME280;51556;50.002;22.014;2022-07-06T01:55:25;98901.48;;;18.43;76.82
65010;BME280;51556;50.002;22.014;2022-07-06T01:57:51;98905.18;;;18.43;76.96
65010;BME280;51556;50.002;22.014;2022-07-06T02:00:16;98917.96;;;18.44;77.21
65010;BME280;51556;50.002;22.014;2022-07-06T02:02:42;98928.80;;;18.45;77.18
65010;BME280;51556;50.002;22.014;2022-07-06T02:05:08;98949.60;;;18.43;77.11
65010;BME280;51556;50.002;22.014;2022-07-06T02:07:33;98962.03;;;18.43;77.25
65010;BME280;51556;50.002;22.014;2022-07-06T02:09:59;98970.02;;;18.41;78.13
65010;BME280;51556;50.002;22.014;2022-07-06T02:12:24;98968.59;;;18.33;77.99
65010;BME280;51556;50.002;22.014;2022-07-06T02:14:50;98968.64;;;18.32;78.02
65010;BME280;51556;50.002;22.014;2022-07-06T02:17:15;98973.89;;;18.28;78.36
65010;BME280;51556;50.002;22.014;2022-07-06T02:19:41;98975.76;;;18.23;78.99
65010;BME280;51556;50.002;22.014;2022-07-06T02:22:06;98978.80;;;18.18;79.09
65010;BME280;51556;50.002;22.014;2022-07-06T02:24:32;98988.10;;;18.17;78.85
65010;BME280;51556;50.002;22.014;2022-07-06T02:26:57;98994.53;;;18.17;78.86
65010;BME280;51556;50.002;22.014;2022-07-06T02:29:23;98999.70;;;18.19;79.00
65010;BME280;51556;50.002;22.014;2022-07-06T02:31:48;99008.05;;;18.20;78.85
65010;BME280;51556;50.002;22.014;2022-07-06T02:34:14;99013.09;;;18.22;78.97
65010;BME280;51556;50.002;22.014;2022-07-06T02:36:39;99016.23;;;18.23;78.95
65010;BME280;51556;50.002;22.014;2022-07-06T02:39:05;99020.96;;;18.24;78.93
65010;BME280;51556;50.002;22.014;2022-07-06T02:41:30;99024.78;;;18.29;78.86
65010;BME280;51556;50.002;22.014;2022-07-06T02:43:56;99027.91;;;18.30;78.90
65010;BME280;51556;50.002;22.014;2022-07-06T02:46:21;99032.40;;;18.32;78.89
65010;BME280;51556;50.002;22.014;2022-07-06T02:48:47;99035.27;;;18.32;79.23
65010;BME280;51556;50.002;22.014;2022-07-06T02:51:12;99034.46;;;18.28;79.61
65010;BME280;51556;50.002;22.014;2022-07-06T02:53:38;99032.27;;;18.23;79.51
65010;BME280;51556;50.002;22.014;2022-07-06T02:56:03;99027.80;;;18.20;79.34
65010;BME280;51556;50.002;22.014;2022-07-06T02:58:29;99025.99;;;18.21;79.45
65010;BME280;51556;50.002;22.014;2022-07-06T03:00:54;99021.09;;;18.22;79.37
65010;BME280;51556;50.002;22.014;2022-07-06T03:03:20;99019.64;;;18.25;79.23
65010;BME280;51556;50.002;22.014;2022-07-06T03:05:45;99016.30;;;18.28;79.09
65010;BME280;51556;50.002;22.014;2022-07-06T03:08:13;99016.05;;;18.26;79.00
65010;BME280;51556;50.002;22.014;2022-07-06T03:10:39;99012.67;;;18.23;79.09
65010;BME280;51556;50.002;22.014;2022-07-06T03:13:05;99005.61;;;18.22;79.04
65010;BME280;51556;50.002;22.014;2022-07-06T03:15:30;99006.98;;;18.20;79.27
65010;BME280;51556;50.002;22.014;2022-07-06T03:17:56;99012.19;;;18.17;79.28
65010;BME280;51556;50.002;22.014;2022-07-06T03:20:21;99017.20;;;18.17;79.36
65010;BME280;51556;50.002;22.014;2022-07-06T03:22:47;99022.92;;;18.16;79.33
65010;BME280;51556;50.002;22.014;2022-07-06T03:25:12;99024.21;;;18.15;79.50
65010;BME280;51556;50.002;22.014;2022-07-06T03:27:38;99028.68;;;18.09;79.70
65010;BME280;51556;50.002;22.014;2022-07-06T03:30:04;99031.47;;;18.07;79.76
65010;BME280;51556;50.002;22.014;2022-07-06T03:32:29;99030.20;;;18.01;79.85
65010;BME280;51556;50.002;22.014;2022-07-06T03:34:57;99030.67;;;17.97;80.22
65010;BME280;51556;50.002;22.014;2022-07-06T03:37:22;99031.73;;;17.97;80.13
65010;BME280;51556;50.002;22.014;2022-07-06T03:39:48;99031.52;;;17.98;80.07
65010;BME280;51556;50.002;22.014;2022-07-06T03:42:13;99035.55;;;17.98;80.04
65010;BME280;51556;50.002;22.014;2022-07-06T03:44:39;99034.95;;;17.96;80.41
65010;BME280;51556;50.002;22.014;2022-07-06T03:47:04;99034.48;;;17.95;80.35
65010;BME280;51556;50.002;22.014;2022-07-06T03:49:30;99033.38;;;17.96;80.22
65010;BME280;51556;50.002;22.014;2022-07-06T03:51:55;99038.47;;;17.97;80.33
65010;BME280;51556;50.002;22.014;2022-07-06T03:54:21;99039.35;;;17.98;80.19
65010;BME280;51556;50.002;22.014;2022-07-06T03:56:47;99042.15;;;17.95;80.35
65010;BME280;51556;50.002;22.014;2022-07-06T03:59:12;99042.91;;;17.94;80.29
65010;BME280;51556;50.002;22.014;2022-07-06T04:01:39;99041.42;;;17.96;80.44
65010;BME280;51556;50.002;22.014;2022-07-06T04:04:04;99047.71;;;17.94;80.42
65010;BME280;51556;50.002;22.014;2022-07-06T04:06:30;99046.67;;;17.97;80.36
65010;BME280;51556;50.002;22.014;2022-07-06T04:08:56;99044.60;;;18.02;80.26
65010;BME280;51556;50.002;22.014;2022-07-06T04:11:21;99045.58;;;18.01;80.27
65010;BME280;51556;50.002;22.014;2022-07-06T04:13:47;99046.95;;;17.95;80.29
65010;BME280;51556;50.002;22.014;2022-07-06T04:16:12;99050.08;;;17.94;80.49
65010;BME280;51556;50.002;22.014;2022-07-06T04:18:38;99053.38;;;17.92;80.44
65010;BME280;51556;50.002;22.014;2022-07-06T04:21:03;99056.63;;;17.94;80.26
65010;BME280;51556;50.002;22.014;2022-07-06T04:23:29;99058.83;;;17.96;80.21
65010;BME280;51556;50.002;22.014;2022-07-06T04:25:54;99061.23;;;17.92;80.18
65010;BME280;51556;50.002;22.014;2022-07-06T04:28:20;99068.16;;;17.83;80.63
65010;BME280;51556;50.002;22.014;2022-07-06T04:30:45;99069.79;;;17.78;80.56
65010;BME280;51556;50.002;22.014;2022-07-06T04:33:11;99070.60;;;17.70;80.72
65010;BME280;51556;50.002;22.014;2022-07-06T04:35:36;99073.09;;;17.67;80.49
65010;BME280;51556;50.002;22.014;2022-07-06T04:38:02;99073.23;;;17.64;80.36
65010;BME280;51556;50.002;22.014;2022-07-06T04:40:28;99075.31;;;17.62;80.32
65010;BME280;51556;50.002;22.014;2022-07-06T04:42:53;99077.77;;;17.62;80.08
65010;BME280;51556;50.002;22.014;2022-07-06T04:45:19;99083.42;;;17.63;80.06
65010;BME280;51556;50.002;22.014;2022-07-06T04:47:44;99081.70;;;17.66;79.92
65010;BME280;51556;50.002;22.014;2022-07-06T04:50:11;99087.36;;;17.69;79.98
65010;BME280;51556;50.002;22.014;2022-07-06T04:52:37;99090.27;;;17.71;79.82
65010;BME280;51556;50.002;22.014;2022-07-06T04:55:03;99091.69;;;17.75;79.78
65010;BME280;51556;50.002;22.014;2022-07-06T04:57:34;99091.38;;;17.77;79.70
65010;BME280;51556;50.002;22.014;2022-07-06T05:00:00;99094.66;;;17.76;79.55
65010;BME280;51556;50.002;22.014;2022-07-06T05:02:26;99093.77;;;17.73;79.31
65010;BME280;51556;50.002;22.014;2022-07-06T05:04:51;99096.46;;;17.72;79.54
65010;BME280;51556;50.002;22.014;2022-07-06T05:07:17;99100.19;;;17.69;79.55
65010;BME280;51556;50.002;22.014;2022-07-06T05:09:43;99107.88;;;17.72;79.48
65010;BME280;51556;50.002;22.014;2022-07-06T05:12:09;99114.31;;;17.71;79.29
65010;BME280;51556;50.002;22.014;2022-07-06T05:14:35;99116.31;;;17.67;79.32
65010;BME280;51556;50.002;22.014;2022-07-06T05:17:02;99121.59;;;17.68;79.24
65010;BME280;51556;50.002;22.014;2022-07-06T05:19:28;99116.58;;;17.69;79.22
65010;BME280;51556;50.002;22.014;2022-07-06T05:21:53;99119.75;;;17.66;79.15
65010;BME280;51556;50.002;22.014;2022-07-06T05:24:19;99120.95;;;17.61;79.28
65010;BME280;51556;50.002;22.014;2022-07-06T05:26:45;99124.78;;;17.59;79.25
65010;BME280;51556;50.002;22.014;2022-07-06T05:29:10;99120.80;;;17.60;79.25
65010;BME280;51556;50.002;22.014;2022-07-06T05:31:36;99120.50;;;17.62;79.19
65010;BME280;51556;50.002;22.014;2022-07-06T05:34:02;99124.39;;;17.66;78.92
65010;BME280;51556;50.002;22.014;2022-07-06T05:36:27;99124.30;;;17.67;78.93
65010;BME280;51556;50.002;22.014;2022-07-06T05:38:53;99124.77;;;17.69;78.91
65010;BME280;51556;50.002;22.014;2022-07-06T05:41:18;99127.83;;;17.71;79.00
65010;BME280;51556;50.002;22.014;2022-07-06T05:43:44;99135.38;;;17.73;79.10
65010;BME280;51556;50.002;22.014;2022-07-06T05:46:09;99136.61;;;17.76;78.84
65010;BME280;51556;50.002;22.014;2022-07-06T05:48:35;99138.34;;;17.74;78.88
65010;BME280;51556;50.002;22.014;2022-07-06T05:51:19;99136.73;;;17.71;78.81
65010;BME280;51556;50.002;22.014;2022-07-06T05:53:44;99139.41;;;17.71;78.79
65010;BME280;51556;50.002;22.014;2022-07-06T05:56:10;99139.09;;;17.74;78.86
65010;BME280;51556;50.002;22.014;2022-07-06T05:58:36;99146.61;;;17.76;78.78
65010;BME280;51556;50.002;22.014;2022-07-06T06:01:01;99149.92;;;17.74;78.91
65010;BME280;51556;50.002;22.014;2022-07-06T06:03:26;99152.52;;;17.72;78.80
65010;BME280;51556;50.002;22.014;2022-07-06T06:05:52;99156.48;;;17.75;78.89
65010;BME280;51556;50.002;22.014;2022-07-06T06:08:18;99157.41;;;17.74;78.73
65010;BME280;51556;50.002;22.014;2022-07-06T06:10:43;99160.66;;;17.70;78.98
65010;BME280;51556;50.002;22.014;2022-07-06T06:13:09;99161.17;;;17.70;78.89
65010;BME280;51556;50.002;22.014;2022-07-06T06:15:34;99164.89;;;17.71;78.82
65010;BME280;51556;50.002;22.014;2022-07-06T06:18:00;99166.41;;;17.72;79.16
65010;BME280;51556;50.002;22.014;2022-07-06T06:20:26;99167.48;;;17.72;79.11
65010;BME280;51556;50.002;22.014;2022-07-06T06:22:54;99171.39;;;17.72;78.84
65010;BME280;51556;50.002;22.014;2022-07-06T06:25:37;99175.09;;;17.70;78.69
65010;BME280;51556;50.002;22.014;2022-07-06T06:28:05;99172.95;;;17.70;78.92
65010;BME280;51556;50.002;22.014;2022-07-06T06:30:31;99174.55;;;17.73;78.71
65010;BME280;51556;50.002;22.014;2022-07-06T06:35:32;99172.23;;;17.79;78.47
65010;BME280;51556;50.002;22.014;2022-07-06T06:37:58;99178.21;;;17.83;78.81
65010;BME280;51556;50.002;22.014;2022-07-06T06:40:23;99177.06;;;17.87;78.33
65010;BME280;51556;50.002;22.014;2022-07-06T06:42:49;99178.80;;;17.91;78.20
65010;BME280;51556;50.002;22.014;2022-07-06T06:45:14;99183.05;;;17.95;78.25
65010;BME280;51556;50.002;22.014;2022-07-06T06:47:40;99186.27;;;18.04;78.30
65010;BME280;51556;50.002;22.014;2022-07-06T06:50:07;99186.03;;;18.14;78.04
65010;BME280;51556;50.002;22.014;2022-07-06T06:52:33;99188.68;;;18.23;77.73
65010;BME280;51556;50.002;22.014;2022-07-06T06:54:58;99196.75;;;18.31;77.73
65010;BME280;51556;50.002;22.014;2022-07-06T06:57:25;99204.73;;;18.38;77.35
65010;BME280;51556;50.002;22.014;2022-07-06T06:59:50;99211.00;;;18.40;76.97
65010;BME280;51556;50.002;22.014;2022-07-06T07:02:16;99217.27;;;18.43;76.76
65010;BME280;51556;50.002;22.014;2022-07-06T07:04:41;99219.21;;;18.43;76.06
65010;BME280;51556;50.002;22.014;2022-07-06T07:07:07;99220.48;;;18.43;75.93
65010;BME280;51556;50.002;22.014;2022-07-06T07:09:33;99222.83;;;18.42;75.88
65010;BME280;51556;50.002;22.014;2022-07-06T07:11:58;99220.67;;;18.45;75.92
65010;BME280;51556;50.002;22.014;2022-07-06T07:14:24;99222.16;;;18.50;75.43
65010;BME280;51556;50.002;22.014;2022-07-06T07:16:49;99222.58;;;18.58;75.35
65010;BME280;51556;50.002;22.014;2022-07-06T07:19:15;99234.28;;;18.65;75.10
65010;BME280;51556;50.002;22.014;2022-07-06T07:21:40;99233.28;;;18.67;74.69
65010;BME280;51556;50.002;22.014;2022-07-06T07:24:06;99231.34;;;18.69;73.76
65010;BME280;51556;50.002;22.014;2022-07-06T07:26:33;99228.95;;;18.74;73.96
65010;BME280;51556;50.002;22.014;2022-07-06T07:28:58;99229.27;;;18.81;74.12
65010;BME280;51556;50.002;22.014;2022-07-06T07:31:24;99232.71;;;18.85;73.36
65010;BME280;51556;50.002;22.014;2022-07-06T07:33:49;99227.55;;;18.85;73.51
65010;BME280;51556;50.002;22.014;2022-07-06T07:36:15;99234.03;;;18.93;73.58
65010;BME280;51556;50.002;22.014;2022-07-06T07:38:40;99237.46;;;19.00;72.53
65010;BME280;51556;50.002;22.014;2022-07-06T07:41:06;99235.15;;;19.03;72.41
65010;BME280;51556;50.002;22.014;2022-07-06T07:43:32;99241.35;;;19.07;71.82
65010;BME280;51556;50.002;22.014;2022-07-06T07:45:57;99239.63;;;19.09;71.67
65010;BME280;51556;50.002;22.014;2022-07-06T07:48:23;99243.21;;;19.11;71.68
65010;BME280;51556;50.002;22.014;2022-07-06T07:50:48;99251.31;;;19.13;71.20
65010;BME280;51556;50.002;22.014;2022-07-06T07:53:14;99254.04;;;19.18;70.81
65010;BME280;51556;50.002;22.014;2022-07-06T07:55:39;99254.04;;;19.21;69.73
65010;BME280;51556;50.002;22.014;2022-07-06T07:58:05;99255.73;;;19.22;69.71
65010;BME280;51556;50.002;22.014;2022-07-06T08:00:31;99251.66;;;19.25;69.84
65010;BME280;51556;50.002;22.014;2022-07-06T08:02:56;99257.00;;;19.33;69.74
65010;BME280;51556;50.002;22.014;2022-07-06T08:05:22;99251.84;;;19.38;68.63
65010;BME280;51556;50.002;22.014;2022-07-06T08:07:48;99255.34;;;19.43;67.81
65010;BME280;51556;50.002;22.014;2022-07-06T08:10:13;99258.02;;;19.43;67.42
65010;BME280;51556;50.002;22.014;2022-07-06T08:12:39;99260.89;;;19.51;68.06
65010;BME280;51556;50.002;22.014;2022-07-06T08:15:05;99259.16;;;19.62;68.82
65010;BME280;51556;50.002;22.014;2022-07-06T08:17:31;99265.44;;;19.69;68.27
65010;BME280;51556;50.002;22.014;2022-07-06T08:19:57;99262.02;;;19.72;67.98
65010;BME280;51556;50.002;22.014;2022-07-06T08:22:23;99267.20;;;19.78;67.04
65010;BME280;51556;50.002;22.014;2022-07-06T08:24:48;99270.48;;;19.82;66.27
65010;BME280;51556;50.002;22.014;2022-07-06T08:27:14;99266.40;;;19.87;65.83
65010;BME280;51556;50.002;22.014;2022-07-06T08:29:40;99275.03;;;19.92;65.50
65010;BME280;51556;50.002;22.014;2022-07-06T08:32:06;99276.08;;;19.95;65.59
65010;BME280;51556;50.002;22.014;2022-07-06T08:34:31;99276.60;;;20.04;65.73
65010;BME280;51556;50.002;22.014;2022-07-06T08:36:57;99273.42;;;20.11;66.16
65010;BME280;51556;50.002;22.014;2022-07-06T08:39:22;99270.22;;;20.22;65.54
65010;BME280;51556;50.002;22.014;2022-07-06T08:41:48;99271.09;;;20.30;65.19
65010;BME280;51556;50.002;22.014;2022-07-06T08:44:15;99268.52;;;20.42;64.24
65010;BME280;51556;50.002;22.014;2022-07-06T08:46:42;99268.85;;;20.50;64.43
65010;BME280;51556;50.002;22.014;2022-07-06T08:49:09;99268.95;;;20.64;64.52
65010;BME280;51556;50.002;22.014;2022-07-06T08:51:40;99274.20;;;20.79;63.56
65010;BME280;51556;50.002;22.014;2022-07-06T08:54:07;99280.36;;;20.83;61.93
65010;BME280;51556;50.002;22.014;2022-07-06T08:56:34;99291.60;;;20.79;61.56
65010;BME280;51556;50.002;22.014;2022-07-06T08:58:59;99293.45;;;20.70;60.72
65010;BME280;51556;50.002;22.014;2022-07-06T09:01:26;99295.38;;;20.65;61.09
65010;BME280;51556;50.002;22.014;2022-07-06T09:03:52;99295.37;;;20.65;61.12
65010;BME280;51556;50.002;22.014;2022-07-06T09:06:24;99289.73;;;20.72;61.12
65010;BME280;51556;50.002;22.014;2022-07-06T09:08:55;99284.36;;;20.85;61.03
65010;BME280;51556;50.002;22.014;2022-07-06T09:11:22;99286.27;;;20.96;61.01
65010;BME280;51556;50.002;22.014;2022-07-06T09:13:50;99291.00;;;21.02;60.56
65010;BME280;51556;50.002;22.014;2022-07-06T09:16:16;99296.25;;;21.04;59.72
65010;BME280;51556;50.002;22.014;2022-07-06T09:18:46;99303.45;;;21.04;58.87
65010;BME280;51556;50.002;22.014;2022-07-06T09:21:29;99304.58;;;21.03;58.41
65010;BME280;51556;50.002;22.014;2022-07-06T09:24:00;99303.12;;;21.03;58.52
65010;BME280;51556;50.002;22.014;2022-07-06T09:26:27;99304.90;;;21.04;59.01
65010;BME280;51556;50.002;22.014;2022-07-06T09:28:55;99309.02;;;21.11;59.51
65010;BME280;51556;50.002;22.014;2022-07-06T09:31:22;99318.31;;;21.24;59.26
65010;BME280;51556;50.002;22.014;2022-07-06T09:33:58;99315.95;;;21.32;57.85
65010;BME280;51556;50.002;22.014;2022-07-06T09:36:39;99315.98;;;21.43;58.38
65010;BME280;51556;50.002;22.014;2022-07-06T09:41:44;99315.98;;;21.55;58.05
65010;BME280;51556;50.002;22.014;2022-07-06T09:44:10;99322.23;;;21.62;57.20
65010;BME280;51556;50.002;22.014;2022-07-06T09:46:42;99320.13;;;21.69;57.26
65010;BME280;51556;50.002;22.014;2022-07-06T09:49:08;99322.30;;;21.74;56.47
65010;BME280;51556;50.002;22.014;2022-07-06T09:51:37;99325.02;;;21.81;56.25
65010;BME280;51556;50.002;22.014;2022-07-06T09:54:07;99330.91;;;21.84;55.26
65010;BME280;51556;50.002;22.014;2022-07-06T09:56:40;99331.53;;;21.80;56.09
65010;BME280;51556;50.002;22.014;2022-07-06T09:59:14;99338.33;;;21.83;55.60
65010;BME280;51556;50.002;22.014;2022-07-06T10:01:41;99335.77;;;21.89;55.84
65010;BME280;51556;50.002;22.014;2022-07-06T10:04:09;99331.27;;;22.01;55.24
65010;BME280;51556;50.002;22.014;2022-07-06T10:06:36;99328.73;;;22.09;55.46
65010;BME280;51556;50.002;22.014;2022-07-06T10:09:05;99328.58;;;22.21;55.39
65010;BME280;51556;50.002;22.014;2022-07-06T10:11:34;99334.70;;;22.35;54.02
65010;BME280;51556;50.002;22.014;2022-07-06T10:14:04;99333.52;;;22.43;53.37
65010;BME280;51556;50.002;22.014;2022-07-06T10:16:30;99332.23;;;22.53;53.32
65010;BME280;51556;50.002;22.014;2022-07-06T10:18:57;99328.27;;;22.65;53.14
65010;BME280;51556;50.002;22.014;2022-07-06T10:21:24;99318.61;;;22.80;53.54
65010;BME280;51556;50.002;22.014;2022-07-06T10:23:51;99321.88;;;22.91;53.12
65010;BME280;51556;50.002;22.014;2022-07-06T10:26:17;99317.45;;;22.92;52.90
65010;BME280;51556;50.002;22.014;2022-07-06T10:28:45;99317.80;;;22.90;52.66
65010;BME280;51556;50.002;22.014;2022-07-06T10:31:18;99316.39;;;22.90;52.39
65010;BME280;51556;50.002;22.014;2022-07-06T10:33:45;99314.45;;;22.94;52.65
65010;BME280;51556;50.002;22.014;2022-07-06T10:36:11;99311.34;;;23.01;52.40
65010;BME280;51556;50.002;22.014;2022-07-06T10:38:37;99308.74;;;23.14;52.92
65010;BME280;51556;50.002;22.014;2022-07-06T10:41:08;99314.66;;;23.26;52.34
65010;BME280;51556;50.002;22.014;2022-07-06T10:43:35;99313.15;;;23.33;52.51
65010;BME280;51556;50.002;22.014;2022-07-06T10:46:09;99314.73;;;23.39;51.40
65010;BME280;51556;50.002;22.014;2022-07-06T10:48:46;99313.44;;;23.46;51.49
65010;BME280;51556;50.002;22.014;2022-07-06T10:51:34;99314.77;;;23.63;51.95
65010;BME280;51556;50.002;22.014;2022-07-06T10:54:01;99316.58;;;23.89;51.62
65010;BME280;51556;50.002;22.014;2022-07-06T10:56:44;99316.49;;;23.99;48.69
65010;BME280;51556;50.002;22.014;2022-07-06T10:59:31;99316.31;;;24.08;47.58
65010;BME280;51556;50.002;22.014;2022-07-06T11:02:16;99314.90;;;24.16;47.51
65010;BME280;51556;50.002;22.014;2022-07-06T11:04:46;99321.48;;;24.28;47.92
65010;BME280;51556;50.002;22.014;2022-07-06T11:07:18;99316.06;;;24.42;48.08
65010;BME280;51556;50.002;22.014;2022-07-06T11:09:58;99312.26;;;24.57;46.09
65010;BME280;51556;50.002;22.014;2022-07-06T11:12:24;99313.61;;;24.67;46.44
65010;BME280;51556;50.002;22.014;2022-07-06T11:14:52;99311.63;;;24.81;47.19
65010;BME280;51556;50.002;22.014;2022-07-06T11:17:18;99310.42;;;24.95;45.71
65010;BME280;51556;50.002;22.014;2022-07-06T11:19:55;99310.59;;;25.02;45.54
65010;BME280;51556;50.002;22.014;2022-07-06T11:22:21;99306.36;;;25.12;46.71
65010;BME280;51556;50.002;22.014;2022-07-06T11:24:50;99309.13;;;25.17;45.55
65010;BME280;51556;50.002;22.014;2022-07-06T11:27:17;99307.17;;;25.23;46.08
65010;BME280;51556;50.002;22.014;2022-07-06T11:29:43;99307.11;;;25.29;45.99
65010;BME280;51556;50.002;22.014;2022-07-06T11:32:11;99311.86;;;25.39;46.35
65010;BME280;51556;50.002;22.014;2022-07-06T11:34:43;99307.70;;;25.58;45.57
65010;BME280;51556;50.002;22.014;2022-07-06T11:37:14;99302.25;;;25.79;45.53
65010;BME280;51556;50.002;22.014;2022-07-06T11:39:44;99299.85;;;25.97;44.82
65010;BME280;51556;50.002;22.014;2022-07-06T11:42:12;99303.51;;;26.01;43.92
65010;BME280;51556;50.002;22.014;2022-07-06T11:44:39;99303.77;;;26.04;44.28
65010;BME280;51556;50.002;22.014;2022-07-06T11:47:06;99304.33;;;26.06;43.30
65010;BME280;51556;50.002;22.014;2022-07-06T11:49:34;99300.81;;;26.11;42.37
65010;BME280;51556;50.002;22.014;2022-07-06T11:52:05;99302.76;;;26.13;42.06
65010;BME280;51556;50.002;22.014;2022-07-06T11:54:32;99302.59;;;26.25;42.62
65010;BME280;51556;50.002;22.014;2022-07-06T11:56:58;99296.67;;;26.40;42.77
65010;BME280;51556;50.002;22.014;2022-07-06T11:59:37;99296.42;;;26.41;42.06
65010;BME280;51556;50.002;22.014;2022-07-06T12:02:12;99303.65;;;26.37;41.89
65010;BME280;51556;50.002;22.014;2022-07-06T12:04:41;99307.79;;;26.45;41.51
65010;BME280;51556;50.002;22.014;2022-07-06T12:07:09;99303.83;;;26.43;40.75
65010;BME280;51556;50.002;22.014;2022-07-06T12:09:38;99291.91;;;26.39;39.77
65010;BME280;51556;50.002;22.014;2022-07-06T12:12:06;99287.03;;;26.39;40.43
65010;BME280;51556;50.002;22.014;2022-07-06T12:14:34;99289.19;;;26.53;40.64
65010;BME280;51556;50.002;22.014;2022-07-06T12:17:05;99292.99;;;26.71;40.12
65010;BME280;51556;50.002;22.014;2022-07-06T12:19:32;99284.30;;;26.82;41.20
65010;BME280;51556;50.002;22.014;2022-07-06T12:21:58;99281.06;;;26.97;39.91
65010;BME280;51556;50.002;22.014;2022-07-06T12:24:26;99283.55;;;27.07;39.48
65010;BME280;51556;50.002;22.014;2022-07-06T12:26:57;99285.39;;;27.18;39.51
65010;BME280;51556;50.002;22.014;2022-07-06T12:29:24;99282.84;;;27.37;39.76
65010;BME280;51556;50.002;22.014;2022-07-06T12:31:55;99277.44;;;27.46;39.42
65010;BME280;51556;50.002;22.014;2022-07-06T12:34:25;99282.60;;;27.60;39.90
65010;BME280;51556;50.002;22.014;2022-07-06T12:36:57;99276.00;;;27.71;38.55
65010;BME280;51556;50.002;22.014;2022-07-06T12:39:28;99278.48;;;27.69;38.93
65010;BME280;51556;50.002;22.014;2022-07-06T12:41:56;99274.10;;;27.70;38.72
65010;BME280;51556;50.002;22.014;2022-07-06T12:44:25;99277.11;;;27.83;38.69
65010;BME280;51556;50.002;22.014;2022-07-06T12:47:05;99270.02;;;27.98;37.95
65010;BME280;51556;50.002;22.014;2022-07-06T12:49:32;99274.09;;;28.14;37.07
65010;BME280;51556;50.002;22.014;2022-07-06T12:54:30;99269.16;;;28.14;37.40
65010;BME280;51556;50.002;22.014;2022-07-06T12:57:07;99272.41;;;27.87;38.09